sensor_id;sensor_type;location;lat;lon;timestamp;pressure;altitude;pressure_sealevel;temperature;humidity
44359;BME280;30077;52.474;13.326;2023-02-10T00:04:58;102544.78;;;0.77;83.98
44359;BME280;30077;52.474;13.326;2023-02-10T00:09:58;102529.91;;;0.78;84.17
44359;BME280;30077;52.474;13.326;2023-02-10T00:14:58;102536.22;;;0.84;83.96
44359;BME280;30077;52.474;13.326;2023-02-10T00:19:58;102530.94;;;0.84;83.73
44359;BME280;30077;52.474;13.326;2023-02-10T00:24:59;102535.97;;;0.75;84.80
44359;BME280;30077;52.474;13.326;2023-02-10T00:29:59;102539.97;;;0.61;85.59
44359;BME280;30077;52.474;13.326;2023-02-10T00:34:59;102538.91;;;0.53;85.98
44359;BME280;30077;52.474;13.326;2023-02-10T00:40:01;102534.34;;;0.47;87.10
44359;BME280;30077;52.474;13.326;2023-02-10T00:45:01;102544.41;;;0.62;88.02
44359;BME280;30077;52.474;13.326;2023-02-10T00:50:02;102545.59;;;0.75;87.97
44359;BME280;30077;52.474;13.326;2023-02-10T00:55:02;102557.22;;;0.84;87.88
44359;BME280;30077;52.474;13.326;2023-02-10T01:00:03;102550.22;;;0.85;87.44
44359;BME280;30077;52.474;13.326;2023-02-10T01:05:03;102563.56;;;0.92;87.61
44359;BME280;30077;52.474;13.326;2023-02-10T01:10:04;102575.72;;;0.89;88.03
44359;BME280;30077;52.474;13.326;2023-02-10T01:15:04;102578.63;;;1.00;87.50
44359;BME280;30077;52.474;13.326;2023-02-10T01:20:04;102574.56;;;0.78;88.35
44359;BME280;30077;52.474;13.326;2023-02-10T01:25:05;102568.63;;;0.52;90.04
44359;BME280;30077;52.474;13.326;2023-02-10T01:30:05;102572.53;;;0.34;91.13
44359;BME280;30077;52.474;13.326;2023-02-10T01:35:05;102566.00;;;0.20;92.45
44359;BME280;30077;52.474;13.326;2023-02-10T01:40:06;102571.00;;;0.11;93.18
44359;BME280;30077;52.474;13.326;2023-02-10T01:45:14;102574.38;;;0.07;94.81
44359;BME280;30077;52.474;13.326;2023-02-10T01:50:14;102566.19;;;-0.04;95.48
44359;BME280;30077;52.474;13.326;2023-02-10T01:55:18;102561.69;;;-0.10;96.01
44359;BME280;30077;52.474;13.326;2023-02-10T02:00:20;102551.19;;;-0.10;96.80
44359;BME280;30077;52.474;13.326;2023-02-10T02:05:25;102543.19;;;-0.14;97.13
44359;BME280;30077;52.474;13.326;2023-02-10T02:10:29;102555.16;;;-0.22;98.21
44359;BME280;30077;52.474;13.326;2023-02-10T02:15:38;102564.50;;;-0.32;98.93
44359;BME280;30077;52.474;13.326;2023-02-10T02:31:08;102577.09;;;-0.49;100.00
44359;BME280;30077;52.474;13.326;2023-02-10T02:36:13;102580.50;;;-0.52;100.00
44359;BME280;30077;52.474;13.326;2023-02-10T02:41:22;102590.91;;;-0.55;100.00
44359;BME280;30077;52.474;13.326;2023-02-10T02:51:47;102580.28;;;-0.59;100.00
44359;BME280;30077;52.474;13.326;2023-02-10T02:56:50;102575.00;;;-0.61;100.00
44359;BME280;30077;52.474;13.326;2023-02-10T03:02:01;102586.31;;;-0.62;100.00
44359;BME280;30077;52.474;13.326;2023-02-10T03:07:03;102577.63;;;-0.61;100.00
44359;BME280;30077;52.474;13.326;2023-02-10T03:12:03;102587.25;;;-0.60;100.00
44359;BME280;30077;52.474;13.326;2023-02-10T03:17:03;102595.22;;;-0.57;100.00
44359;BME280;30077;52.474;13.326;2023-02-10T03:22:04;102598.94;;;-0.50;100.00
44359;BME280;30077;52.474;13.326;2023-02-10T03:27:04;102592.84;;;-0.49;100.00
44359;BME280;30077;52.474;13.326;2023-02-10T03:32:05;102598.19;;;-0.46;100.00
44359;BME280;30077;52.474;13.326;2023-02-10T03:37:06;102597.41;;;-0.43;100.00
44359;BME280;30077;52.474;13.326;2023-02-10T03:42:06;102604.66;;;-0.33;100.00
44359;BME280;30077;52.474;13.326;2023-02-10T03:47:06;102598.03;;;-0.22;100.00
44359;BME280;30077;52.474;13.326;2023-02-10T03:52:07;102603.56;;;-0.13;100.00
44359;BME280;30077;52.474;13.326;2023-02-10T03:57:07;102606.63;;;0.03;100.00
44359;BME280;30077;52.474;13.326;2023-02-10T04:02:07;102610.72;;;0.23;100.00
44359;BME280;30077;52.474;13.326;2023-02-10T04:07:07;102612.59;;;0.27;100.00
44359;BME280;30077;52.474;13.326;2023-02-10T04:12:08;102594.22;;;0.27;100.00
44359;BME280;30077;52.474;13.326;2023-02-10T04:17:08;102591.78;;;0.33;100.00
44359;BME280;30077;52.474;13.326;2023-02-10T04:22:08;102583.22;;;0.40;100.00
44359;BME280;30077;52.474;13.326;2023-02-10T04:27:09;102580.81;;;0.50;100.00
44359;BME280;30077;52.474;13.326;2023-02-10T04:32:09;102589.78;;;0.58;100.00
44359;BME280;30077;52.474;13.326;2023-02-10T04:37:10;102593.28;;;0.57;100.00
44359;BME280;30077;52.474;13.326;2023-02-10T04:42:10;102597.00;;;0.65;100.00
44359;BME280;30077;52.474;13.326;2023-02-10T04:47:10;102609.44;;;0.72;100.00
44359;BME280;30077;52.474;13.326;2023-02-10T04:52:10;102608.56;;;0.71;100.00
44359;BME280;30077;52.474;13.326;2023-02-10T04:57:11;102604.19;;;0.72;100.00
44359;BME280;30077;52.474;13.326;2023-02-10T05:02:11;102600.78;;;0.76;100.00
44359;BME280;30077;52.474;13.326;2023-02-10T05:07:11;102609.31;;;0.67;100.00
44359;BME280;30077;52.474;13.326;2023-02-10T05:12:11;102621.75;;;0.73;100.00
44359;BME280;30077;52.474;13.326;2023-02-10T05:17:11;102612.25;;;0.78;100.00
44359;BME280;30077;52.474;13.326;2023-02-10T05:22:11;102620.09;;;0.77;100.00
44359;BME280;30077;52.474;13.326;2023-02-10T05:27:12;102607.75;;;0.74;100.00
44359;BME280;30077;52.474;13.326;2023-02-10T05:32:13;102607.75;;;0.74;100.00
44359;BME280;30077;52.474;13.326;2023-02-10T05:37:13;102616.53;;;0.75;100.00
44359;BME280;30077;52.474;13.326;2023-02-10T05:42:13;102631.31;;;0.71;100.00
44359;BME280;30077;52.474;13.326;2023-02-10T05:47:13;102624.03;;;0.61;100.00
44359;BME280;30077;52.474;13.326;2023-02-10T05:52:14;102624.47;;;0.44;100.00
44359;BME280;30077;52.474;13.326;2023-02-10T05:57:14;102621.41;;;0.29;100.00
44359;BME280;30077;52.474;13.326;2023-02-10T06:02:14;102619.38;;;0.19;100.00
44359;BME280;30077;52.474;13.326;2023-02-10T06:07:14;102628.66;;;0.08;100.00
44359;BME280;30077;52.474;13.326;2023-02-10T06:12:16;102647.84;;;0.07;100.00
44359;BME280;30077;52.474;13.326;2023-02-10T06:17:16;102642.50;;;0.04;100.00
44359;BME280;30077;52.474;13.326;2023-02-10T06:22:16;102641.63;;;0.03;100.00
44359;BME280;30077;52.474;13.326;2023-02-10T06:27:16;102656.63;;;0.07;100.00
44359;BME280;30077;52.474;13.326;2023-02-10T06:32:17;102658.34;;;0.07;100.00
44359;BME280;30077;52.474;13.326;2023-02-10T06:37:17;102668.16;;;0.12;100.00
44359;BME280;30077;52.474;13.326;2023-02-10T06:42:17;102663.66;;;0.08;100.00
44359;BME280;30077;52.474;13.326;2023-02-10T06:47:17;102673.28;;;0.08;100.00
44359;BME280;30077;52.474;13.326;2023-02-10T06:52:19;102662.81;;;0.09;100.00
44359;BME280;30077;52.474;13.326;2023-02-10T06:57:19;102670.00;;;0.15;100.00
44359;BME280;30077;52.474;13.326;2023-02-10T07:02:19;102675.47;;;0.22;100.00
44359;BME280;30077;52.474;13.326;2023-02-10T07:07:20;102687.03;;;0.29;100.00
44359;BME280;30077;52.474;13.326;2023-02-10T07:12:20;102676.88;;;0.41;100.00
44359;BME280;30077;52.474;13.326;2023-02-10T07:17:20;102689.44;;;0.52;100.00
44359;BME280;30077;52.474;13.326;2023-02-10T07:22:21;102680.06;;;0.61;100.00
44359;BME280;30077;52.474;13.326;2023-02-10T07:27:21;102690.97;;;0.75;100.00
44359;BME280;30077;52.474;13.326;2023-02-10T07:32:21;102706.41;;;0.94;100.00
44359;BME280;30077;52.474;13.326;2023-02-10T07:37:21;102701.66;;;1.13;100.00
44359;BME280;30077;52.474;13.326;2023-02-10T07:42:22;102705.53;;;1.27;100.00
44359;BME280;30077;52.474;13.326;2023-02-10T07:47:22;102718.91;;;1.38;100.00
44359;BME280;30077;52.474;13.326;2023-02-10T07:52:22;102718.28;;;1.47;100.00
44359;BME280;30077;52.474;13.326;2023-02-10T07:57:23;102710.56;;;1.53;100.00
44359;BME280;30077;52.474;13.326;2023-02-10T08:02:23;102719.53;;;1.61;100.00
44359;BME280;30077;52.474;13.326;2023-02-10T08:07:23;102722.53;;;1.76;100.00
44359;BME280;30077;52.474;13.326;2023-02-10T08:12:23;102737.06;;;1.97;100.00
44359;BME280;30077;52.474;13.326;2023-02-10T08:17:23;102731.50;;;2.22;100.00
44359;BME280;30077;52.474;13.326;2023-02-10T08:22:24;102726.69;;;2.44;100.00
44359;BME280;30077;52.474;13.326;2023-02-10T08:27:24;102741.81;;;2.54;100.00
44359;BME280;30077;52.474;13.326;2023-02-10T08:32:24;102751.78;;;2.69;100.00
44359;BME280;30077;52.474;13.326;2023-02-10T08:37:24;102758.88;;;2.70;100.00
44359;BME280;30077;52.474;13.326;2023-02-10T08:42:25;102760.84;;;2.80;100.00
44359;BME280;30077;52.474;13.326;2023-02-10T08:47:26;102760.44;;;3.04;100.00
44359;BME280;30077;52.474;13.326;2023-02-10T08:52:26;102760.72;;;3.19;100.00
44359;BME280;30077;52.474;13.326;2023-02-10T08:57:26;102760.97;;;3.33;100.00
44359;BME280;30077;52.474;13.326;2023-02-10T09:02:26;102775.31;;;3.46;100.00
44359;BME280;30077;52.474;13.326;2023-02-10T09:07:27;102765.50;;;3.92;100.00
44359;BME280;30077;52.474;13.326;2023-02-10T09:12:27;102764.78;;;4.02;99.40
44359;BME280;30077;52.474;13.326;2023-02-10T09:17:27;102774.53;;;4.04;99.41
44359;BME280;30077;52.474;13.326;2023-02-10T09:22:27;102774.94;;;3.77;100.00
44359;BME280;30077;52.474;13.326;2023-02-10T09:27:27;102786.13;;;3.61;100.00
44359;BME280;30077;52.474;13.326;2023-02-10T09:32:27;102779.88;;;3.56;100.00
44359;BME280;30077;52.474;13.326;2023-02-10T09:37:28;102775.81;;;3.76;100.00
44359;BME280;30077;52.474;13.326;2023-02-10T09:47:32;102795.88;;;4.18;100.00
44359;BME280;30077;52.474;13.326;2023-02-10T09:52:41;102802.00;;;4.17;100.00
44359;BME280;30077;52.474;13.326;2023-02-10T09:57:48;102790.88;;;4.38;100.00
44359;BME280;30077;52.474;13.326;2023-02-10T10:02:50;102801.56;;;4.46;98.96
44359;BME280;30077;52.474;13.326;2023-02-10T10:07:51;102816.38;;;4.34;99.99
44359;BME280;30077;52.474;13.326;2023-02-10T10:12:53;102814.97;;;4.59;98.73
44359;BME280;30077;52.474;13.326;2023-02-10T10:33:26;102821.59;;;4.91;96.24
44359;BME280;30077;52.474;13.326;2023-02-10T10:38:31;102809.28;;;4.96;96.53
44359;BME280;30077;52.474;13.326;2023-02-10T10:43:32;102804.22;;;5.14;95.11
44359;BME280;30077;52.474;13.326;2023-02-10T10:48:34;102802.53;;;5.19;94.87
44359;BME280;30077;52.474;13.326;2023-02-10T10:58:40;102812.28;;;5.26;97.86
44359;BME280;30077;52.474;13.326;2023-02-10T11:03:42;102802.81;;;5.47;95.19
44359;BME280;30077;52.474;13.326;2023-02-10T11:13:50;102776.94;;;6.11;94.55
44359;BME280;30077;52.474;13.326;2023-02-10T11:19:01;102777.00;;;6.17;92.04
44359;BME280;30077;52.474;13.326;2023-02-10T11:24:01;102768.03;;;6.00;91.49
44359;BME280;30077;52.474;13.326;2023-02-10T11:29:08;102762.78;;;6.08;91.57
44359;BME280;30077;52.474;13.326;2023-02-10T11:34:16;102755.78;;;6.20;89.67
44359;BME280;30077;52.474;13.326;2023-02-10T11:39:23;102755.66;;;6.02;89.86
44359;BME280;30077;52.474;13.326;2023-02-10T11:44:26;102757.19;;;5.75;91.73
44359;BME280;30077;52.474;13.326;2023-02-10T11:49:28;102763.47;;;5.90;91.48
44359;BME280;30077;52.474;13.326;2023-02-10T11:54:31;102758.19;;;5.91;90.59
44359;BME280;30077;52.474;13.326;2023-02-10T11:59:37;102756.59;;;6.09;90.72
44359;BME280;30077;52.474;13.326;2023-02-10T12:05:00;102752.28;;;6.21;89.44
44359;BME280;30077;52.474;13.326;2023-02-10T12:10:20;102753.97;;;6.10;89.68
44359;BME280;30077;52.474;13.326;2023-02-10T12:15:27;102744.06;;;5.89;90.99
44359;BME280;30077;52.474;13.326;2023-02-10T12:20:38;102744.94;;;5.90;91.43
44359;BME280;30077;52.474;13.326;2023-02-10T12:25:46;102738.06;;;6.10;90.37
44359;BME280;30077;52.474;13.326;2023-02-10T12:30:57;102743.41;;;6.19;89.84
44359;BME280;30077;52.474;13.326;2023-02-10T12:36:09;102738.13;;;6.22;89.60
44359;BME280;30077;52.474;13.326;2023-02-10T12:46:17;102738.03;;;6.07;91.02
44359;BME280;30077;52.474;13.326;2023-02-10T12:56:26;102730.25;;;6.33;89.20
44359;BME280;30077;52.474;13.326;2023-02-10T13:06:41;102724.13;;;6.45;88.74
44359;BME280;30077;52.474;13.326;2023-02-10T13:11:48;102720.56;;;6.46;88.21
44359;BME280;30077;52.474;13.326;2023-02-10T13:16:53;102729.41;;;6.45;88.12
44359;BME280;30077;52.474;13.326;2023-02-10T13:32:25;102709.06;;;6.38;89.48
44359;BME280;30077;52.474;13.326;2023-02-10T13:37:42;102713.41;;;6.28;89.47
44359;BME280;30077;52.474;13.326;2023-02-10T13:52:59;102719.56;;;6.22;89.66
44359;BME280;30077;52.474;13.326;2023-02-10T14:08:13;102705.59;;;6.46;88.46
44359;BME280;30077;52.474;13.326;2023-02-10T14:13:21;102694.91;;;6.39;88.53
44359;BME280;30077;52.474;13.326;2023-02-10T14:18:24;102697.63;;;6.48;88.27
44359;BME280;30077;52.474;13.326;2023-02-10T14:23:24;102685.25;;;6.51;87.56
44359;BME280;30077;52.474;13.326;2023-02-10T14:28:27;102681.66;;;6.42;87.81
44359;BME280;30077;52.474;13.326;2023-02-10T14:33:31;102676.44;;;6.54;87.48
44359;BME280;30077;52.474;13.326;2023-02-10T14:38:33;102668.47;;;6.54;86.88
44359;BME280;30077;52.474;13.326;2023-02-10T14:43:38;102669.31;;;6.41;87.25
44359;BME280;30077;52.474;13.326;2023-02-10T14:48:39;102673.66;;;6.25;88.64
44359;BME280;30077;52.474;13.326;2023-02-10T14:53:39;102673.56;;;6.10;89.38
44359;BME280;30077;52.474;13.326;2023-02-10T14:58:42;102670.72;;;5.84;90.35
44359;BME280;30077;52.474;13.326;2023-02-10T15:03:42;102671.50;;;5.69;91.41
44359;BME280;30077;52.474;13.326;2023-02-10T15:08:46;102667.00;;;5.57;92.72
44359;BME280;30077;52.474;13.326;2023-02-10T15:13:49;102661.66;;;5.51;92.92
44359;BME280;30077;52.474;13.326;2023-02-10T15:18:50;102666.91;;;5.48;93.46
44359;BME280;30077;52.474;13.326;2023-02-10T15:23:51;102673.88;;;5.35;94.35
44359;BME280;30077;52.474;13.326;2023-02-10T15:29:02;102666.75;;;5.29;94.91
44359;BME280;30077;52.474;13.326;2023-02-10T15:34:14;102663.94;;;5.10;95.71
44359;BME280;30077;52.474;13.326;2023-02-10T15:39:17;102658.44;;;4.87;96.98
44359;BME280;30077;52.474;13.326;2023-02-10T15:49:20;102640.47;;;4.55;99.75
44359;BME280;30077;52.474;13.326;2023-02-10T15:54:21;102634.19;;;4.47;100.00
44359;BME280;30077;52.474;13.326;2023-02-10T15:59:22;102634.06;;;4.38;100.00
44359;BME280;30077;52.474;13.326;2023-02-10T16:04:27;102633.06;;;4.25;100.00
44359;BME280;30077;52.474;13.326;2023-02-10T16:09:29;102639.91;;;4.10;100.00
44359;BME280;30077;52.474;13.326;2023-02-10T16:14:30;102638.91;;;4.01;100.00
44359;BME280;30077;52.474;13.326;2023-02-10T16:19:30;102645.84;;;3.93;100.00
44359;BME280;30077;52.474;13.326;2023-02-10T16:24:30;102656.28;;;3.86;100.00
44359;BME280;30077;52.474;13.326;2023-02-10T16:29:31;102661.44;;;3.77;100.00
44359;BME280;30077;52.474;13.326;2023-02-10T16:34:31;102651.56;;;3.66;100.00
44359;BME280;30077;52.474;13.326;2023-02-10T16:39:33;102647.09;;;3.60;100.00
44359;BME280;30077;52.474;13.326;2023-02-10T16:44:33;102658.50;;;3.56;100.00
44359;BME280;30077;52.474;13.326;2023-02-10T16:49:34;102661.78;;;3.43;100.00
44359;BME280;30077;52.474;13.326;2023-02-10T16:54:34;102659.03;;;3.36;100.00
44359;BME280;30077;52.474;13.326;2023-02-10T16:59:35;102657.25;;;3.35;100.00
44359;BME280;30077;52.474;13.326;2023-02-10T17:04:35;102647.53;;;3.31;100.00
44359;BME280;30077;52.474;13.326;2023-02-10T17:09:35;102664.25;;;3.33;100.00
44359;BME280;30077;52.474;13.326;2023-02-10T17:14:37;102667.69;;;3.29;100.00
44359;BME280;30077;52.474;13.326;2023-02-10T17:19:37;102664.97;;;3.23;100.00
44359;BME280;30077;52.474;13.326;2023-02-10T17:24:37;102658.00;;;3.27;100.00
44359;BME280;30077;52.474;13.326;2023-02-10T17:29:37;102661.53;;;3.29;100.00
44359;BME280;30077;52.474;13.326;2023-02-10T17:34:38;102657.19;;;3.31;100.00
44359;BME280;30077;52.474;13.326;2023-02-10T17:39:39;102668.63;;;3.31;100.00
44359;BME280;30077;52.474;13.326;2023-02-10T17:44:43;102670.56;;;3.42;100.00
44359;BME280;30077;52.474;13.326;2023-02-10T17:49:43;102665.31;;;3.43;100.00
44359;BME280;30077;52.474;13.326;2023-02-10T17:54:43;102659.28;;;3.52;100.00
44359;BME280;30077;52.474;13.326;2023-02-10T17:59:43;102664.59;;;3.55;100.00
44359;BME280;30077;52.474;13.326;2023-02-10T18:04:44;102661.16;;;3.59;100.00
44359;BME280;30077;52.474;13.326;2023-02-10T18:09:46;102660.31;;;3.60;100.00
44359;BME280;30077;52.474;13.326;2023-02-10T18:14:46;102638.16;;;3.52;100.00
44359;BME280;30077;52.474;13.326;2023-02-10T18:19:49;102634.56;;;3.45;100.00
44359;BME280;30077;52.474;13.326;2023-02-10T18:24:49;102618.63;;;3.41;100.00
44359;BME280;30077;52.474;13.326;2023-02-10T18:29:49;102621.31;;;3.44;100.00
44359;BME280;30077;52.474;13.326;2023-02-10T18:34:49;102613.28;;;3.34;100.00
44359;BME280;30077;52.474;13.326;2023-02-10T18:39:49;102615.94;;;3.34;100.00
44359;BME280;30077;52.474;13.326;2023-02-10T18:44:55;102623.84;;;3.34;100.00
44359;BME280;30077;52.474;13.326;2023-02-10T18:49:55;102612.28;;;3.28;100.00
44359;BME280;30077;52.474;13.326;2023-02-10T18:54:55;102602.63;;;3.28;100.00
44359;BME280;30077;52.474;13.326;2023-02-10T18:59:55;102605.25;;;3.27;100.00
44359;BME280;30077;52.474;13.326;2023-02-10T19:04:56;102600.84;;;3.27;100.00
44359;BME280;30077;52.474;13.326;2023-02-10T19:09:56;102599.97;;;3.27;100.00
44359;BME280;30077;52.474;13.326;2023-02-10T19:14:56;102598.97;;;3.20;100.00
44359;BME280;30077;52.474;13.326;2023-02-10T19:19:57;102602.31;;;3.10;100.00
44359;BME280;30077;52.474;13.326;2023-02-10T19:24:57;102598.81;;;3.11;100.00
44359;BME280;30077;52.474;13.326;2023-02-10T19:29:58;102604.09;;;3.11;100.00
44359;BME280;30077;52.474;13.326;2023-02-10T19:34:59;102602.31;;;3.10;100.00
44359;BME280;30077;52.474;13.326;2023-02-10T19:39:59;102592.66;;;3.10;100.00
44359;BME280;30077;52.474;13.326;2023-02-10T19:44:59;102583.88;;;3.11;100.00
44359;BME280;30077;52.474;13.326;2023-02-10T19:49:59;102585.56;;;3.08;100.00
44359;BME280;30077;52.474;13.326;2023-02-10T19:54:59;102576.00;;;3.13;100.00
44359;BME280;30077;52.474;13.326;2023-02-10T20:00:00;102575.06;;;3.09;100.00
44359;BME280;30077;52.474;13.326;2023-02-10T20:05:00;102558.38;;;3.09;100.00
44359;BME280;30077;52.474;13.326;2023-02-10T20:10:00;102555.63;;;3.04;100.00
44359;BME280;30077;52.474;13.326;2023-02-10T20:15:00;102545.06;;;3.03;100.00
44359;BME280;30077;52.474;13.326;2023-02-10T20:20:02;102538.81;;;2.98;100.00
44359;BME280;30077;52.474;13.326;2023-02-10T20:25:03;102536.91;;;2.87;100.00
44359;BME280;30077;52.474;13.326;2023-02-10T20:30:03;102540.25;;;2.77;100.00
44359;BME280;30077;52.474;13.326;2023-02-10T20:35:03;102541.00;;;2.70;100.00
44359;BME280;30077;52.474;13.326;2023-02-10T20:40:04;102533.84;;;2.63;100.00
44359;BME280;30077;52.474;13.326;2023-02-10T20:45:05;102538.13;;;2.56;100.00
44359;BME280;30077;52.474;13.326;2023-02-10T20:50:05;102530.97;;;2.48;100.00
44359;BME280;30077;52.474;13.326;2023-02-10T20:55:05;102514.16;;;2.42;100.00
44359;BME280;30077;52.474;13.326;2023-02-10T21:00:06;102516.84;;;2.46;100.00
44359;BME280;30077;52.474;13.326;2023-02-10T21:05:07;102529.22;;;2.50;100.00
44359;BME280;30077;52.474;13.326;2023-02-10T21:10:07;102525.84;;;2.57;100.00
44359;BME280;30077;52.474;13.326;2023-02-10T21:15:08;102535.59;;;2.62;100.00
44359;BME280;30077;52.474;13.326;2023-02-10T21:20:08;102524.38;;;2.74;100.00
44359;BME280;30077;52.474;13.326;2023-02-10T21:25:09;102513.84;;;2.74;100.00
44359;BME280;30077;52.474;13.326;2023-02-10T21:30:10;102516.53;;;2.79;100.00
44359;BME280;30077;52.474;13.326;2023-02-10T21:35:10;102502.50;;;2.78;100.00
44359;BME280;30077;52.474;13.326;2023-02-10T21:40:10;102496.22;;;2.70;100.00
44359;BME280;30077;52.474;13.326;2023-02-10T21:45:10;102491.84;;;2.72;100.00
44359;BME280;30077;52.474;13.326;2023-02-10T21:50:11;102463.53;;;2.59;100.00
44359;BME280;30077;52.474;13.326;2023-02-10T21:55:11;102451.94;;;2.48;100.00
44359;BME280;30077;52.474;13.326;2023-02-10T22:00:11;102450.94;;;2.41;100.00
44359;BME280;30077;52.474;13.326;2023-02-10T22:05:11;102455.31;;;2.42;100.00
44359;BME280;30077;52.474;13.326;2023-02-10T22:10:11;102442.03;;;2.34;100.00
44359;BME280;30077;52.474;13.326;2023-02-10T22:15:12;102427.09;;;2.33;100.00
44359;BME280;30077;52.474;13.326;2023-02-10T22:20:12;102425.41;;;2.38;100.00
44359;BME280;30077;52.474;13.326;2023-02-10T22:25:12;102412.22;;;2.37;100.00
44359;BME280;30077;52.474;13.326;2023-02-10T22:30:12;102416.63;;;2.39;100.00
44359;BME280;30077;52.474;13.326;2023-02-10T22:35:12;102409.72;;;2.45;100.00
44359;BME280;30077;52.474;13.326;2023-02-10T22:40:12;102400.88;;;2.41;100.00
44359;BME280;30077;52.474;13.326;2023-02-10T22:45:13;102401.72;;;2.38;100.00
44359;BME280;30077;52.474;13.326;2023-02-10T22:50:13;102399.91;;;2.36;100.00
44359;BME280;30077;52.474;13.326;2023-02-10T22:55:13;102400.81;;;2.36;100.00
44359;BME280;30077;52.474;13.326;2023-02-10T23:00:21;102390.34;;;2.42;100.00
44359;BME280;30077;52.474;13.326;2023-02-10T23:05:23;102368.47;;;2.45;100.00
44359;BME280;30077;52.474;13.326;2023-02-10T23:10:23;102369.28;;;2.42;100.00
44359;BME280;30077;52.474;13.326;2023-02-10T23:15:23;102340.28;;;2.41;100.00
44359;BME280;30077;52.474;13.326;2023-02-10T23:20:23;102329.81;;;2.46;100.00
44359;BME280;30077;52.474;13.326;2023-02-10T23:25:23;102301.78;;;2.48;100.00
44359;BME280;30077;52.474;13.326;2023-02-10T23:30:23;102299.97;;;2.45;100.00
44359;BME280;30077;52.474;13.326;2023-02-10T23:35:24;102286.69;;;2.37;100.00
44359;BME280;30077;52.474;13.326;2023-02-10T23:40:24;102288.50;;;2.40;100.00
44359;BME280;30077;52.474;13.326;2023-02-10T23:45:24;102279.72;;;2.42;100.00
44359;BME280;30077;52.474;13.326;2023-02-10T23:50:24;102272.91;;;2.57;100.00
44359;BME280;30077;52.474;13.326;2023-02-10T23:55:25;102262.31;;;2.54;100.00
